Peshawar Weather



Peshawar's Current Weather

Temprature 7o mist

mist

Rain: 0 %

Min Temprature7o
Max Temprature7o
Humidity87
Wind Speed2.1 m/h
Sun Rise07:10:47
Sun Set17:05:31
Current Time: 14-Dec-2019 08:13:09
Lat/Lon: 34.01, 71.58




Peshawar's Geo Location



Peshawar's Weather Forecast

Time Overall Temp Min Temp Max Temp Humidity Wind Speed Rain
14-Dec-2019 (Sat)
11:00:00 overcast clouds 11.420 11.420 13.310 63 2.21 m/h 0 %
14:00:00 clear sky 14.020 14.020 15.440 54 0.93 m/h 0 %
17:00:00 light rain 13.950 13.950 14.890 54 1.12 m/h 63 %
20:00:00 light rain 13.570 13.570 14.040 58 0.35 m/h 75 %
23:00:00 light rain 10.950 10.950 10.950 80 2.74 m/h 88 %
15-Dec-2019 (Sun)
02:00:00 light rain 10.960 10.960 10.960 77 1.33 m/h 44 %
05:00:00 scattered clouds 10.490 10.490 10.490 77 0.92 m/h 0 %
08:00:00 clear sky 11.230 11.230 11.230 72 1.37 m/h 0 %
11:00:00 clear sky 14.680 14.680 14.680 53 1.13 m/h 0 %
14:00:00 clear sky 17.160 17.160 17.160 37 1.08 m/h 0 %
17:00:00 clear sky 15.980 15.980 15.980 36 1 m/h 0 %
20:00:00 clear sky 14.290 14.290 14.290 38 1.35 m/h 0 %
23:00:00 clear sky 13.090 13.090 13.090 33 1.19 m/h 0 %
16-Dec-2019 (Mon)
02:00:00 clear sky 12.150 12.150 12.150 31 0.85 m/h 0 %
05:00:00 clear sky 11.000 11.000 11.000 35 0.24 m/h 0 %
08:00:00 clear sky 10.800 10.800 10.800 35 0.49 m/h 0 %
11:00:00 clear sky 14.870 14.870 14.870 22 1.23 m/h 0 %
14:00:00 clear sky 17.790 17.790 17.790 15 0.56 m/h 0 %
17:00:00 clear sky 16.090 16.090 16.090 19 1.1 m/h 0 %
20:00:00 clear sky 14.190 14.190 14.190 22 1.57 m/h 0 %
23:00:00 clear sky 12.950 12.950 12.950 23 0.57 m/h 0 %
17-Dec-2019 (Tue)
02:00:00 clear sky 11.270 11.270 11.270 24 1 m/h 0 %
05:00:00 clear sky 9.440 9.440 9.440 28 0.7 m/h 0 %
08:00:00 clear sky 9.860 9.860 9.860 27 0.56 m/h 0 %
11:00:00 clear sky 13.890 13.890 13.890 18 1.39 m/h 0 %
14:00:00 clear sky 16.460 16.460 16.460 14 1.39 m/h 0 %
17:00:00 few clouds 14.980 14.980 14.980 17 1.01 m/h 0 %
20:00:00 overcast clouds 13.590 13.590 13.590 16 0.82 m/h 0 %
23:00:00 overcast clouds 12.550 12.550 12.550 16 0.65 m/h 0 %
18-Dec-2019 (Wed)
02:00:00 overcast clouds 10.740 10.740 10.740 21 0.99 m/h 0 %
05:00:00 overcast clouds 9.960 9.960 9.960 24 0.62 m/h 0 %
08:00:00 overcast clouds 10.500 10.500 10.500 24 0.52 m/h 0 %
11:00:00 overcast clouds 14.110 14.110 14.110 16 1.15 m/h 0 %
14:00:00 overcast clouds 16.350 16.350 16.350 14 0.75 m/h 0 %
17:00:00 broken clouds 14.660 14.660 14.660 17 0.82 m/h 0 %
20:00:00 scattered clouds 12.870 12.870 12.870 19 0.91 m/h 0 %
23:00:00 scattered clouds 11.610 11.610 11.610 22 0.1 m/h 0 %
19-Dec-2019 (Thu)
02:00:00 scattered clouds 10.340 10.340 10.340 24 0.79 m/h 0 %
05:00:00 scattered clouds 9.370 9.370 9.370 27 0.45 m/h 0 %
08:00:00 clear sky 9.920 9.920 9.920 26 0.64 m/h 0 %

Famous Cities (61)